Time;durP1;ratioP1;P1;durP2;ratioP2;P2;SDS_P1;SDS_P2;PMS_P1;PMS_P2;Temp;Humidity;BMP_temperature;BMP_pressure;BME280_temperature;BME280_humidity;BME280_pressure;Samples;Min_cycle;Max_cycle;Signal;HPM_P1;HPM_P2
2022/06/25 00:00:32;;;;;;;10.07;3.60;;;;;;;;;;5112691;28;20613;-69
2022/06/25 00:03:02;;;;;;;11.17;2.57;;;;;;;;;;5105706;28;20026;-69
2022/06/25 00:05:29;;;;;;;8.73;3.53;;;;;;;;;;5109345;28;20071;-70
2022/06/25 00:07:59;;;;;;;7.93;4.30;;;;;;;;;;5114385;28;20023;-69
2022/06/25 00:10:26;;;;;;;7.00;2.47;;;;;;;;;;5108382;28;20067;-69
2022/06/25 00:12:53;;;;;;;16.03;10.83;;;;;;;;;;5108147;28;20079;-69
2022/06/25 00:15:20;;;;;;;10.53;2.50;;;;;;;;;;5108848;28;20039;-69
2022/06/25 00:17:47;;;;;;;8.17;2.30;;;;;;;;;;5109137;28;20153;-70
2022/06/25 00:20:14;;;;;;;101.37;8.40;;;;;;;;;;5113758;28;20028;-69
2022/06/25 00:22:40;;;;;;;167.50;89.60;;;;;;;;;;5114088;28;20030;-69
2022/06/25 00:25:07;;;;;;;24.13;7.07;;;;;;;;;;5114126;28;20093;-70
2022/06/25 00:27:34;;;;;;;6.87;2.00;;;;;;;;;;5113375;28;20728;-69
2022/06/25 00:30:01;;;;;;;8.77;2.40;;;;;;;;;;5113518;28;20023;-70
2022/06/25 00:32:28;;;;;;;8.87;2.20;;;;;;;;;;5109300;28;20024;-70
2022/06/25 00:34:54;;;;;;;10.37;3.43;;;;;;;;;;5107891;28;20024;-70
2022/06/25 00:37:21;;;;;;;10.13;2.87;;;;;;;;;;5108697;28;20445;-70
2022/06/25 00:39:48;;;;;;;7.13;2.20;;;;;;;;;;5108345;28;20451;-70
2022/06/25 00:42:15;;;;;;;7.97;2.43;;;;;;;;;;5112740;28;20045;-70
2022/06/25 00:44:42;;;;;;;6.60;2.30;;;;;;;;;;5113967;28;20034;-70
2022/06/25 00:47:10;;;;;;;7.47;1.97;;;;;;;;;;5114161;28;20484;-70
2022/06/25 00:49:37;;;;;;;6.80;2.80;;;;;;;;;;5113951;28;20028;-70
2022/06/25 00:52:07;;;;;;;6.03;2.70;;;;;;;;;;5113759;28;20015;-70
2022/06/25 00:57:39;;;;;;;10.87;2.97;;;;;;;;;;5102804;28;20097;-70
2022/06/25 01:00:15;;;;;;;4.43;2.43;;;;;;;;;;5107193;27;20046;-72
2022/06/25 01:02:42;;;;;;;9.03;2.60;;;;;;;;;;5108172;28;20020;-72
2022/06/25 01:05:11;;;;;;;8.93;2.47;;;;;;;;;;5112865;28;20034;-72
2022/06/25 01:07:38;;;;;;;7.77;2.47;;;;;;;;;;5112465;28;20373;-81
2022/06/25 01:10:09;;;;;;;51.30;47.70;;;;;;;;;;5113083;28;20058;-71
2022/06/25 01:12:36;;;;;;;8.90;1.80;;;;;;;;;;5113423;28;20028;-71
2022/06/25 01:15:13;;;;;;;8.87;1.87;;;;;;;;;;5112237;28;20497;-72
2022/06/25 01:17:50;;;;;;;8.23;1.97;;;;;;;;;;5107956;28;20516;-71
2022/06/25 01:20:18;;;;;;;3.50;1.60;;;;;;;;;;5107931;28;20055;-70
2022/06/25 01:22:45;;;;;;;4.10;1.70;;;;;;;;;;5108236;28;20062;-70
2022/06/25 01:25:12;;;;;;;6.37;1.97;;;;;;;;;;5108408;28;20477;-71
2022/06/25 01:27:39;;;;;;;6.57;1.50;;;;;;;;;;5113353;28;20046;-75
2022/06/25 01:30:07;;;;;;;8.47;1.90;;;;;;;;;;5113222;28;20452;-75
2022/06/25 01:32:34;;;;;;;9.07;1.80;;;;;;;;;;5112431;28;20031;-75
2022/06/25 01:35:00;;;;;;;96.27;5.83;;;;;;;;;;5113202;28;20026;-75
2022/06/25 01:37:27;;;;;;;68.23;19.23;;;;;;;;;;5111863;28;20015;-76
2022/06/25 01:39:54;;;;;;;5.67;2.60;;;;;;;;;;5107509;28;20048;-75
2022/06/25 01:45:07;;;;;;;4.40;1.10;;;;;;;;;;5107824;28;20479;-75
2022/06/25 01:47:34;;;;;;;6.80;1.63;;;;;;;;;;5108675;28;20016;-75
2022/06/25 01:50:01;;;;;;;4.73;1.10;;;;;;;;;;5113013;28;20020;-75
2022/06/25 01:52:28;;;;;;;6.77;1.20;;;;;;;;;;5112050;28;20434;-77
2022/06/25 01:54:55;;;;;;;3.17;1.27;;;;;;;;;;5113119;28;20019;-75
2022/06/25 01:57:21;;;;;;;2.53;1.20;;;;;;;;;;5112837;28;20062;-75
2022/06/25 01:59:48;;;;;;;5.90;1.67;;;;;;;;;;5111432;28;20016;-74
2022/06/25 02:02:15;;;;;;;2.60;0.93;;;;;;;;;;5107087;28;20076;-74
2022/06/25 02:04:42;;;;;;;16.13;14.90;;;;;;;;;;5107335;28;20047;-74
2022/06/25 02:07:09;;;;;;;1999.90;999.90;;;;;;;;;;5107559;28;20023;-74
2022/06/25 02:09:35;;;;;;;235.13;212.07;;;;;;;;;;5107922;28;20047;-74
2022/06/25 02:12:02;;;;;;;6.57;5.73;;;;;;;;;;5112259;28;20478;-74
2022/06/25 02:14:29;;;;;;;3.23;1.30;;;;;;;;;;5112856;28;20238;-74
2022/06/25 02:16:56;;;;;;;39.60;28.47;;;;;;;;;;5112526;28;20031;-74
2022/06/25 02:19:22;;;;;;;94.33;81.97;;;;;;;;;;5112505;28;20024;-74
2022/06/25 02:21:49;;;;;;;6.93;1.33;;;;;;;;;;5110998;28;20090;-73
2022/06/25 02:24:15;;;;;;;2.50;1.07;;;;;;;;;;5106820;28;20024;-74
2022/06/25 02:26:42;;;;;;;142.00;21.40;;;;;;;;;;5107262;28;20027;-75
2022/06/25 02:29:09;;;;;;;4.10;2.13;;;;;;;;;;5107242;28;20027;-74
2022/06/25 02:31:35;;;;;;;6.80;3.07;;;;;;;;;;5107554;28;20031;-74
2022/06/25 02:34:02;;;;;;;6.63;6.00;;;;;;;;;;5112136;28;20031;-74
2022/06/25 02:36:29;;;;;;;2.53;1.20;;;;;;;;;;5112432;28;20019;-74
2022/06/25 02:38:56;;;;;;;2.10;0.73;;;;;;;;;;5112159;28;20118;-74
2022/06/25 02:41:22;;;;;;;3.90;1.03;;;;;;;;;;5112271;28;20026;-74
2022/06/25 02:43:49;;;;;;;14.23;1.70;;;;;;;;;;5111515;28;20376;-74
2022/06/25 02:46:15;;;;;;;7.20;1.63;;;;;;;;;;5107051;28;20302;-74
2022/06/25 02:48:42;;;;;;;5.13;1.60;;;;;;;;;;5107181;28;20020;-74
2022/06/25 02:51:09;;;;;;;3.17;1.20;;;;;;;;;;5107198;28;20093;-75
2022/06/25 02:53:35;;;;;;;4.03;1.93;;;;;;;;;;5110521;28;20043;-74
2022/06/25 02:58:54;;;;;;;7.83;2.83;;;;;;;;;;5115633;28;20104;-74
2022/06/25 03:01:21;;;;;;;6.33;1.43;;;;;;;;;;5116124;28;20030;-74
2022/06/25 03:03:48;;;;;;;5.93;4.50;;;;;;;;;;5115926;28;20031;-73
2022/06/25 03:06:15;;;;;;;7.30;1.77;;;;;;;;;;5114159;28;20027;-74
2022/06/25 03:08:41;;;;;;;19.20;11.20;;;;;;;;;;5110150;28;20474;-73
2022/06/25 03:11:08;;;;;;;21.27;14.27;;;;;;;;;;5110280;28;20035;-74
2022/06/25 03:13:36;;;;;;;1482.67;726.73;;;;;;;;;;5110434;28;20020;-74
2022/06/25 03:16:04;;;;;;;11.57;2.83;;;;;;;;;;5110566;28;20118;-74
2022/06/25 03:18:31;;;;;;;27.13;24.20;;;;;;;;;;5114830;28;20027;-74
2022/06/25 03:20:58;;;;;;;8.10;2.30;;;;;;;;;;5115265;28;20501;-74
2022/06/25 03:23:29;;;;;;;1015.33;436.83;;;;;;;;;;5115774;28;20501;-74
2022/06/25 03:25:55;;;;;;;1999.90;999.90;;;;;;;;;;5114406;28;20032;-74
2022/06/25 03:28:22;;;;;;;1999.90;999.90;;;;;;;;;;5114259;28;20055;-74
2022/06/25 03:30:49;;;;;;;1999.90;999.90;;;;;;;;;;5109592;28;20031;-74
2022/06/25 03:33:16;;;;;;;1999.90;999.90;;;;;;;;;;5110251;28;20027;-74
2022/06/25 03:35:42;;;;;;;1999.90;999.90;;;;;;;;;;5109504;28;20023;-74
2022/06/25 03:38:09;;;;;;;1999.90;999.90;;;;;;;;;;5110393;28;20032;-74
2022/06/25 03:40:36;;;;;;;1999.90;999.90;;;;;;;;;;5115287;28;20028;-74
2022/06/25 03:43:03;;;;;;;1999.90;999.90;;;;;;;;;;5115358;28;20020;-74
2022/06/25 03:45:29;;;;;;;1999.90;999.90;;;;;;;;;;5114749;28;20019;-73
2022/06/25 03:47:56;;;;;;;1999.90;999.90;;;;;;;;;;5115047;28;20026;-74
2022/06/25 03:50:23;;;;;;;1999.90;999.90;;;;;;;;;;5114466;28;20027;-74
2022/06/25 03:52:50;;;;;;;1999.90;999.90;;;;;;;;;;5109207;28;20092;-74
2022/06/25 03:55:17;;;;;;;1999.90;999.90;;;;;;;;;;5109526;28;20062;-74
2022/06/25 03:57:44;;;;;;;1999.90;999.90;;;;;;;;;;5109790;28;20047;-73
2022/06/25 04:00:11;;;;;;;1999.90;999.90;;;;;;;;;;5109262;28;20047;-73
2022/06/25 04:02:38;;;;;;;1999.90;999.90;;;;;;;;;;5114781;28;20027;-73
2022/06/25 04:05:05;;;;;;;1999.90;999.90;;;;;;;;;;5114198;28;20011;-74
2022/06/25 04:07:31;;;;;;;4.13;2.10;;;;;;;;;;5114395;28;20053;-71
2022/06/25 04:09:58;;;;;;;7.67;2.00;;;;;;;;;;5114818;28;20019;-71
2022/06/25 04:12:25;;;;;;;405.97;99.73;;;;;;;;;;5114372;28;20363;-71
2022/06/25 04:14:51;;;;;;;14.93;13.67;;;;;;;;;;5109427;28;20457;-72
2022/06/25 04:17:18;;;;;;;60.97;8.20;;;;;;;;;;5108835;28;20034;-72
2022/06/25 04:19:45;;;;;;;9.53;3.13;;;;;;;;;;5109265;28;20023;-69
2022/06/25 04:22:12;;;;;;;13.70;4.60;;;;;;;;;;5109142;28;20042;-70
2022/06/25 04:24:39;;;;;;;8.57;4.87;;;;;;;;;;5113809;28;20485;-72
2022/06/25 04:27:07;;;;;;;17.77;16.03;;;;;;;;;;5114018;28;20043;-71
2022/06/25 04:29:34;;;;;;;60.33;56.50;;;;;;;;;;5114252;28;20024;-73
2022/06/25 04:32:00;;;;;;;5.07;2.10;;;;;;;;;;5114326;28;20126;-74
2022/06/25 04:34:27;;;;;;;7.70;2.97;;;;;;;;;;5114221;28;20024;-73
2022/06/25 04:36:54;;;;;;;7.20;3.03;;;;;;;;;;5108742;28;20035;-81
2022/06/25 04:39:21;;;;;;;9.27;2.77;;;;;;;;;;5108295;28;20709;-80
2022/06/25 04:41:47;;;;;;;7.90;2.13;;;;;;;;;;5108793;28;20020;-75
2022/06/25 04:44:15;;;;;;;5.90;1.77;;;;;;;;;;5108713;28;20525;-75
2022/06/25 04:46:43;;;;;;;8.70;2.33;;;;;;;;;;5113240;28;20027;-76
2022/06/25 04:49:10;;;;;;;10.33;2.63;;;;;;;;;;5113942;28;20020;-76
2022/06/25 04:51:37;;;;;;;5.37;2.67;;;;;;;;;;5113976;28;20034;-80
2022/06/25 04:54:03;;;;;;;8.33;2.27;;;;;;;;;;5113491;28;20073;-74
2022/06/25 04:56:31;;;;;;;80.50;64.33;;;;;;;;;;5113429;28;20025;-74
2022/06/25 04:58:58;;;;;;;456.47;210.07;;;;;;;;;;5108476;28;20077;-73
2022/06/25 05:01:25;;;;;;;784.07;357.20;;;;;;;;;;5108359;28;20092;-73
2022/06/25 05:03:52;;;;;;;9.07;2.77;;;;;;;;;;5108437;28;20023;-75
2022/06/25 05:06:18;;;;;;;11.23;5.67;;;;;;;;;;5107877;28;20036;-75
2022/06/25 05:08:45;;;;;;;581.07;284.17;;;;;;;;;;5112747;28;20527;-73
2022/06/25 05:11:12;;;;;;;18.27;9.33;;;;;;;;;;5112668;28;20055;-72
2022/06/25 05:13:38;;;;;;;10.43;2.90;;;;;;;;;;5113457;28;20109;-73
2022/06/25 05:16:05;;;;;;;14.93;2.57;;;;;;;;;;5113005;28;20034;-71
2022/06/25 05:18:33;;;;;;;9.53;2.57;;;;;;;;;;5113329;28;20039;-75
2022/06/25 05:21:00;;;;;;;16.70;2.53;;;;;;;;;;5107927;28;20119;-74
2022/06/25 05:23:26;;;;;;;8.90;2.27;;;;;;;;;;5108127;28;20046;-71
2022/06/25 05:25:53;;;;;;;5.37;2.37;;;;;;;;;;5106802;28;20040;-73
2022/06/25 05:28:20;;;;;;;152.30;96.60;;;;;;;;;;5107858;28;20030;-72
2022/06/25 05:30:46;;;;;;;13.77;12.27;;;;;;;;;;5111828;28;20359;-72
2022/06/25 05:33:13;;;;;;;3.83;1.67;;;;;;;;;;5113100;28;20023;-74
2022/06/25 05:35:40;;;;;;;308.60;19.83;;;;;;;;;;5112789;28;20040;-74
2022/06/25 05:38:08;;;;;;;116.20;6.53;;;;;;;;;;5113073;28;20066;-73
2022/06/25 05:40:35;;;;;;;11.60;10.43;;;;;;;;;;5113068;28;20024;-75
2022/06/25 05:43:02;;;;;;;176.97;10.07;;;;;;;;;;5108498;28;20425;-69
2022/06/25 05:45:29;;;;;;;181.27;33.57;;;;;;;;;;5107181;28;20040;-75
2022/06/25 05:47:56;;;;;;;7.47;2.33;;;;;;;;;;5107723;28;20030;-72
2022/06/25 05:50:26;;;;;;;5.80;2.47;;;;;;;;;;5107472;28;20023;-75
2022/06/25 05:52:53;;;;;;;8.13;3.60;;;;;;;;;;5111603;28;20152;-75
2022/06/25 05:55:20;;;;;;;8.37;3.00;;;;;;;;;;5112589;28;20022;-74
2022/06/25 05:57:47;;;;;;;6.87;3.30;;;;;;;;;;5112512;28;20023;-72
2022/06/25 06:00:13;;;;;;;9.27;3.70;;;;;;;;;;5112885;28;20027;-72
2022/06/25 06:02:40;;;;;;;9.30;3.53;;;;;;;;;;5112625;28;20032;-72
2022/06/25 06:05:07;;;;;;;11.63;4.93;;;;;;;;;;5107619;28;20464;-73
2022/06/25 06:07:34;;;;;;;10.67;6.20;;;;;;;;;;5107825;28;20095;-72
2022/06/25 06:10:01;;;;;;;9.73;3.43;;;;;;;;;;5107343;28;20481;-72
2022/06/25 06:12:27;;;;;;;15.10;3.57;;;;;;;;;;5107096;28;20055;-71
2022/06/25 06:14:55;;;;;;;5.67;2.63;;;;;;;;;;5110672;28;20020;-74
2022/06/25 06:17:22;;;;;;;4.30;2.67;;;;;;;;;;5112351;28;20036;-72
2022/06/25 06:19:48;;;;;;;10.80;3.47;;;;;;;;;;5112894;28;20385;-77
2022/06/25 06:22:15;;;;;;;8.60;2.90;;;;;;;;;;5112498;28;20031;-78
2022/06/25 06:24:42;;;;;;;7.77;3.30;;;;;;;;;;5112571;28;20099;-75
2022/06/25 06:27:09;;;;;;;11.77;4.80;;;;;;;;;;5109407;28;20028;-76
2022/06/25 06:29:35;;;;;;;13.67;2.97;;;;;;;;;;5110585;28;20034;-74
2022/06/25 06:32:02;;;;;;;9.17;2.63;;;;;;;;;;5111363;28;20038;-69
2022/06/25 06:34:29;;;;;;;1999.90;999.90;;;;;;;;;;5111383;28;20405;-66
2022/06/25 06:36:55;;;;;;;1999.90;999.90;;;;;;;;;;5114517;28;20575;-65
2022/06/25 06:39:22;;;;;;;99.30;93.47;;;;;;;;;;5116227;28;20020;-75
2022/06/25 06:41:49;;;;;;;70.23;65.87;;;;;;;;;;5098057;28;20023;-70
2022/06/25 06:44:16;;;;;;;733.73;396.27;;;;;;;;;;5116084;28;20373;-69
2022/06/25 06:46:42;;;;;;;47.07;43.10;;;;;;;;;;5116295;28;20035;-72
2022/06/25 06:49:09;;;;;;;1999.90;999.90;;;;;;;;;;5112083;28;20015;-68
2022/06/25 06:51:36;;;;;;;1999.90;999.90;;;;;;;;;;5110813;28;20081;-68
2022/06/25 06:54:03;;;;;;;76.73;71.87;;;;;;;;;;5110139;28;20123;-68
2022/06/25 06:56:30;;;;;;;87.10;71.27;;;;;;;;;;5110955;28;20713;-68
2022/06/25 06:58:57;;;;;;;1352.27;683.63;;;;;;;;;;5113023;28;20048;-68
2022/06/25 07:01:24;;;;;;;53.83;48.53;;;;;;;;;;5116170;28;20023;-68
2022/06/25 07:03:50;;;;;;;10.57;7.90;;;;;;;;;;5115843;28;20047;-68
2022/06/25 07:06:18;;;;;;;11.23;4.37;;;;;;;;;;5115876;28;20035;-68
2022/06/25 07:08:44;;;;;;;20.67;18.67;;;;;;;;;;5115933;28;20470;-68
2022/06/25 07:11:30;;;;;;;7.57;6.43;;;;;;;;;;5112202;28;20433;-68
2022/06/25 07:13:56;;;;;;;;;;;;;;;;;;5110598;28;20026;-68
2022/06/25 07:16:23;;;;;;;10.53;3.43;;;;;;;;;;5110330;28;19912;-68
2022/06/25 07:18:50;;;;;;;9.63;2.90;;;;;;;;;;5110410;28;20051;-68
2022/06/25 07:21:17;;;;;;;11.10;3.00;;;;;;;;;;5113608;28;20028;-68
2022/06/25 07:23:44;;;;;;;8.63;2.23;;;;;;;;;;5115417;28;20474;-68
2022/06/25 07:26:10;;;;;;;8.33;2.77;;;;;;;;;;5115435;28;20034;-68
2022/06/25 07:28:37;;;;;;;7.93;2.30;;;;;;;;;;5115175;28;20027;-68
2022/06/25 07:31:04;;;;;;;9.63;4.03;;;;;;;;;;5115292;28;20356;-68
2022/06/25 07:33:30;;;;;;;8.20;3.33;;;;;;;;;;5111863;28;20024;-68
2022/06/25 07:35:58;;;;;;;8.33;3.93;;;;;;;;;;5110222;28;20035;-68
2022/06/25 07:38:24;;;;;;;11.90;3.10;;;;;;;;;;5109417;28;20062;-68
2022/06/25 07:40:51;;;;;;;9.03;2.80;;;;;;;;;;5109964;28;20355;-68
2022/06/25 07:43:18;;;;;;;13.87;3.13;;;;;;;;;;5112349;28;20034;-68
2022/06/25 07:45:45;;;;;;;10.53;3.60;;;;;;;;;;5114915;28;20100;-68
2022/06/25 07:48:11;;;;;;;8.53;3.57;;;;;;;;;;5115287;28;20089;-68
2022/06/25 07:53:23;;;;;;;8.55;2.72;;;;;;;;;;5115041;28;20039;-67
2022/06/25 07:55:50;;;;;;;10.50;3.27;;;;;;;;;;5110425;28;20026;-68
2022/06/25 07:58:17;;;;;;;5.80;2.00;;;;;;;;;;5109579;28;20027;-67
2022/06/25 08:00:43;;;;;;;10.40;2.50;;;;;;;;;;5109381;28;20030;-67
2022/06/25 08:03:10;;;;;;;5.80;2.47;;;;;;;;;;5109086;28;20072;-67
2022/06/25 08:05:37;;;;;;;11.70;3.63;;;;;;;;;;5112852;28;20489;-67
2022/06/25 08:08:04;;;;;;;10.67;2.73;;;;;;;;;;5114734;28;20105;-68
2022/06/25 08:10:30;;;;;;;9.33;2.90;;;;;;;;;;5114403;28;20024;-68
2022/06/25 08:12:57;;;;;;;16.97;3.03;;;;;;;;;;5114343;28;20032;-68
2022/06/25 08:15:23;;;;;;;8.00;3.10;;;;;;;;;;5114616;28;20024;-67
2022/06/25 08:17:51;;;;;;;91.27;82.47;;;;;;;;;;5110936;28;20394;-68
2022/06/25 08:20:18;;;;;;;9.40;2.80;;;;;;;;;;5109144;28;20027;-68
2022/06/25 08:22:44;;;;;;;8.93;2.90;;;;;;;;;;5108820;28;20028;-68
2022/06/25 08:25:11;;;;;;;8.33;2.83;;;;;;;;;;5108994;28;20070;-68
2022/06/25 08:27:51;;;;;;;89.43;35.63;;;;;;;;;;5111196;28;20084;-67
2022/06/25 08:30:21;;;;;;;8.73;2.60;;;;;;;;;;5113999;28;20107;-68
2022/06/25 08:32:48;;;;;;;10.10;3.07;;;;;;;;;;5113460;28;20049;-67
2022/06/25 08:35:15;;;;;;;9.63;3.50;;;;;;;;;;5114442;28;20015;-68
2022/06/25 08:37:48;;;;;;;10.83;2.50;;;;;;;;;;5114027;28;20024;-68
2022/06/25 08:40:16;;;;;;;9.93;2.27;;;;;;;;;;5109706;28;20044;-67
2022/06/25 08:42:43;;;;;;;6.47;2.87;;;;;;;;;;5108424;28;20078;-69
2022/06/25 08:45:10;;;;;;;7.07;2.23;;;;;;;;;;5108651;28;20032;-69
2022/06/25 08:47:47;;;;;;;8.40;2.23;;;;;;;;;;5108276;28;20057;-69
2022/06/25 08:50:17;;;;;;;9.20;4.23;;;;;;;;;;5111330;28;20411;-69
2022/06/25 08:52:44;;;;;;;57.90;53.40;;;;;;;;;;5113697;28;20488;-69
2022/06/25 08:55:12;;;;;;;7.87;2.70;;;;;;;;;;5113779;28;20027;-69
2022/06/25 08:57:39;;;;;;;9.03;2.60;;;;;;;;;;5113428;28;20027;-69
2022/06/25 09:00:06;;;;;;;7.17;4.03;;;;;;;;;;5113751;28;20028;-70
2022/06/25 09:02:32;;;;;;;10.87;2.53;;;;;;;;;;5109014;28;20022;-69
2022/06/25 09:04:59;;;;;;;6.77;2.30;;;;;;;;;;5107970;28;20106;-69
2022/06/25 09:07:25;;;;;;;9.17;4.00;;;;;;;;;;5107962;28;20497;-70
2022/06/25 09:09:52;;;;;;;10.93;2.60;;;;;;;;;;5107982;28;20359;-69
2022/06/25 09:12:19;;;;;;;8.13;3.80;;;;;;;;;;5112038;28;20455;-69
2022/06/25 09:14:46;;;;;;;8.97;5.47;;;;;;;;;;5113578;28;20027;-69
2022/06/25 09:17:14;;;;;;;92.40;86.73;;;;;;;;;;5112933;28;20549;-69
2022/06/25 09:19:48;;;;;;;252.20;30.63;;;;;;;;;;5113016;28;20011;-69
2022/06/25 09:22:17;;;;;;;85.30;74.28;;;;;;;;;;5113354;28;20028;-69
2022/06/25 09:24:44;;;;;;;10.23;3.53;;;;;;;;;;5108531;28;20020;-69
2022/06/25 09:27:11;;;;;;;7.67;2.77;;;;;;;;;;5107393;28;20031;-70
2022/06/25 09:29:42;;;;;;;44.03;40.93;;;;;;;;;;5108008;28;20031;-69
2022/06/25 09:32:10;;;;;;;11.67;6.07;;;;;;;;;;5107405;28;20051;-69
2022/06/25 09:34:38;;;;;;;11.37;3.73;;;;;;;;;;5111836;28;20026;-69
2022/06/25 09:37:17;;;;;;;317.80;47.63;;;;;;;;;;5112575;28;20363;-69
2022/06/25 09:39:46;;;;;;;30.43;5.13;;;;;;;;;;5112793;28;20036;-69
2022/06/25 09:42:29;;;;;;;6.50;2.70;;;;;;;;;;5112924;28;20105;-69
2022/06/25 09:45:09;;;;;;;8.20;2.40;;;;;;;;;;5112654;28;20027;-69
2022/06/25 09:47:39;;;;;;;5.37;2.37;;;;;;;;;;5107252;28;20053;-69
2022/06/25 09:50:12;;;;;;;9.60;3.40;;;;;;;;;;5107493;28;20023;-69
2022/06/25 09:52:39;;;;;;;717.50;341.07;;;;;;;;;;5107377;28;20049;-69
2022/06/25 09:55:07;;;;;;;1347.10;673.73;;;;;;;;;;5107862;28;20363;-69
2022/06/25 09:57:34;;;;;;;6.23;2.20;;;;;;;;;;5112471;28;20077;-69
2022/06/25 10:00:02;;;;;;;5.50;2.00;;;;;;;;;;5112781;28;20030;-69
2022/06/25 10:02:29;;;;;;;6.17;2.13;;;;;;;;;;5112471;28;20039;-69
2022/06/25 10:05:03;;;;;;;1345.50;678.07;;;;;;;;;;5112581;28;20027;-69
2022/06/25 10:10:20;;;;;;;8.03;1.97;;;;;;;;;;5106750;28;20050;-69
2022/06/25 10:12:48;;;;;;;11.73;10.50;;;;;;;;;;5107330;28;20505;-69
2022/06/25 10:15:23;;;;;;;5.90;2.30;;;;;;;;;;5106928;28;20044;-69
2022/06/25 10:17:51;;;;;;;5.13;2.20;;;;;;;;;;5108811;28;20078;-69
2022/06/25 10:20:19;;;;;;;10.97;2.60;;;;;;;;;;5112415;28;20034;-69
2022/06/25 10:22:47;;;;;;;8.07;2.60;;;;;;;;;;5112517;28;20035;-69
2022/06/25 10:25:15;;;;;;;5.23;2.30;;;;;;;;;;5112586;28;20096;-69
2022/06/25 10:27:46;;;;;;;7.77;3.17;;;;;;;;;;5112507;28;20016;-69
2022/06/25 10:30:13;;;;;;;6.27;2.43;;;;;;;;;;5109358;28;20027;-69
2022/06/25 10:32:49;;;;;;;11.33;2.60;;;;;;;;;;5107044;28;20019;-69
2022/06/25 10:35:28;;;;;;;7.50;2.43;;;;;;;;;;5106842;28;20023;-69
2022/06/25 10:38:02;;;;;;;9.47;2.83;;;;;;;;;;5107068;28;20027;-69
2022/06/25 10:40:30;;;;;;;8.35;2.05;;;;;;;;;;5109417;28;20513;-69
2022/06/25 10:43:00;;;;;;;7.60;2.70;;;;;;;;;;5112479;28;20023;-69
2022/06/25 10:45:27;;;;;;;46.67;43.57;;;;;;;;;;5112405;28;20024;-69
2022/06/25 10:47:57;;;;;;;92.50;86.70;;;;;;;;;;5112421;28;20020;-69
2022/06/25 10:50:25;;;;;;;18.97;17.23;;;;;;;;;;5111460;28;20105;-69
2022/06/25 10:53:03;;;;;;;8.33;2.90;;;;;;;;;;5108888;28;20031;-69
2022/06/25 10:55:31;;;;;;;9.17;3.90;;;;;;;;;;5106953;28;20028;-69
2022/06/25 10:58:17;;;;;;;4.93;2.30;;;;;;;;;;5106917;28;20031;-69
2022/06/25 11:00:57;;;;;;;1999.90;999.90;;;;;;;;;;5086082;28;20068;-69
2022/06/25 11:03:33;;;;;;;1999.90;999.90;;;;;;;;;;5090860;28;20518;-69
2022/06/25 11:06:01;;;;;;;1999.90;999.90;;;;;;;;;;5091775;28;20024;-69
2022/06/25 11:08:35;;;;;;;1999.90;999.90;;;;;;;;;;5075553;28;20347;-69
2022/06/25 11:11:03;;;;;;;95.07;88.97;;;;;;;;;;5112084;28;20373;-69
2022/06/25 11:13:32;;;;;;;690.10;355.50;;;;;;;;;;5113606;28;20480;-69
2022/06/25 11:15:59;;;;;;;42.20;39.60;;;;;;;;;;5110557;28;20023;-69
2022/06/25 11:18:26;;;;;;;24.90;22.90;;;;;;;;;;5110098;28;20026;-69
2022/06/25 11:20:52;;;;;;;31.27;23.40;;;;;;;;;;5110340;28;20020;-69
2022/06/25 11:23:19;;;;;;;3.17;1.90;;;;;;;;;;5109901;28;20027;-69
2022/06/25 11:28:48;;;;;;;6.93;2.47;;;;;;;;;;5115493;28;20553;-69
2022/06/25 11:31:22;;;;;;;8.03;3.33;;;;;;;;;;5115210;28;20023;-69
2022/06/25 11:33:49;;;;;;;6.70;2.00;;;;;;;;;;5115604;28;20050;-69
2022/06/25 11:36:16;;;;;;;6.40;2.40;;;;;;;;;;5114077;28;20038;-69
2022/06/25 11:38:50;;;;;;;22.80;20.97;;;;;;;;;;5109559;28;20469;-69
2022/06/25 11:41:23;;;;;;;7.13;3.30;;;;;;;;;;5109994;28;20024;-69
2022/06/25 11:43:50;;;;;;;9.33;2.93;;;;;;;;;;5109544;28;20023;-69
2022/06/25 11:46:19;;;;;;;7.63;2.23;;;;;;;;;;5110791;28;20027;-69
2022/06/25 11:48:50;;;;;;;7.80;2.70;;;;;;;;;;5114947;28;20101;-69
2022/06/25 11:51:26;;;;;;;6.13;2.73;;;;;;;;;;5115179;28;20351;-69
2022/06/25 11:53:54;;;;;;;8.77;5.20;;;;;;;;;;5114643;28;20023;-68
2022/06/25 11:56:20;;;;;;;11.77;3.80;;;;;;;;;;5114820;28;20019;-69
2022/06/25 11:58:48;;;;;;;7.93;3.70;;;;;;;;;;5112764;28;20478;-69
2022/06/25 12:01:14;;;;;;;28.43;26.47;;;;;;;;;;5109368;28;20051;-69
2022/06/25 12:03:41;;;;;;;16.23;9.30;;;;;;;;;;5109515;28;20024;-69
2022/06/25 12:06:08;;;;;;;12.60;3.90;;;;;;;;;;5109114;28;20481;-69
2022/06/25 12:08:35;;;;;;;7.27;3.30;;;;;;;;;;5110807;28;20022;-69
2022/06/25 12:11:02;;;;;;;7.67;2.73;;;;;;;;;;5114872;28;20016;-69
2022/06/25 12:13:30;;;;;;;8.00;3.13;;;;;;;;;;5114722;28;20035;-69
2022/06/25 12:16:04;;;;;;;9.03;3.70;;;;;;;;;;5114375;28;20036;-69
2022/06/25 12:18:38;;;;;;;29.77;27.48;;;;;;;;;;5114357;28;20104;-68
2022/06/25 12:21:05;;;;;;;6.37;4.60;;;;;;;;;;5111423;28;20036;-69
2022/06/25 12:23:52;;;;;;;8.20;6.83;;;;;;;;;;5109297;28;20019;-69
2022/06/25 12:26:25;;;;;;;8.97;3.70;;;;;;;;;;5108148;28;20500;-69
2022/06/25 12:28:52;;;;;;;10.47;2.47;;;;;;;;;;5108989;28;20084;-69
2022/06/25 12:31:22;;;;;;;7.10;2.77;;;;;;;;;;5110821;28;20012;-69
2022/06/25 12:33:50;;;;;;;7.87;3.40;;;;;;;;;;5114199;28;20023;-69
2022/06/25 12:36:18;;;;;;;8.00;3.53;;;;;;;;;;5114295;28;20019;-69
2022/06/25 12:38:44;;;;;;;8.47;2.80;;;;;;;;;;5114245;28;20020;-68
2022/06/25 12:41:11;;;;;;;8.93;3.90;;;;;;;;;;5113833;28;20031;-69
2022/06/25 12:43:48;;;;;;;16.77;7.23;;;;;;;;;;5110622;28;20023;-69
2022/06/25 12:46:18;;;;;;;14.10;7.23;;;;;;;;;;5090343;28;20389;-69
2022/06/25 12:48:45;;;;;;;57.70;39.53;;;;;;;;;;5108519;28;20020;-69
2022/06/25 12:51:15;;;;;;;16.23;5.77;;;;;;;;;;5108217;28;20035;-69
2022/06/25 12:53:43;;;;;;;12.83;6.50;;;;;;;;;;5111975;28;20053;-69
2022/06/25 12:56:11;;;;;;;14.70;5.83;;;;;;;;;;5113866;28;20699;-69
2022/06/25 12:58:43;;;;;;;11.27;7.53;;;;;;;;;;5113933;28;20351;-69
2022/06/25 13:01:23;;;;;;;16.93;5.27;;;;;;;;;;5113699;28;20019;-69
2022/06/25 13:03:49;;;;;;;8.17;2.63;;;;;;;;;;5113759;28;20089;-69
2022/06/25 13:06:16;;;;;;;11.80;2.73;;;;;;;;;;5108864;28;20035;-69
2022/06/25 13:08:43;;;;;;;12.17;3.77;;;;;;;;;;5107812;28;20023;-69
2022/06/25 13:11:20;;;;;;;7.07;2.47;;;;;;;;;;5107972;28;20047;-69
2022/06/25 13:13:47;;;;;;;8.13;2.70;;;;;;;;;;5107900;28;20055;-70
2022/06/25 13:16:14;;;;;;;20.03;18.20;;;;;;;;;;5112584;28;20404;-69
2022/06/25 13:18:41;;;;;;;9.87;3.80;;;;;;;;;;5113560;28;20441;-69
2022/06/25 13:21:08;;;;;;;8.80;4.10;;;;;;;;;;5112659;28;20020;-69
2022/06/25 13:23:35;;;;;;;8.47;2.13;;;;;;;;;;5113292;28;20084;-69
2022/06/25 13:26:03;;;;;;;12.00;2.17;;;;;;;;;;5113233;28;20539;-69
2022/06/25 13:28:31;;;;;;;8.80;2.80;;;;;;;;;;5108309;28;20023;-69
2022/06/25 13:30:58;;;;;;;10.43;2.83;;;;;;;;;;5107526;28;20473;-69
2022/06/25 13:33:25;;;;;;;7.40;2.80;;;;;;;;;;5107792;28;20059;-69
2022/06/25 13:35:52;;;;;;;8.73;2.53;;;;;;;;;;5106607;28;20026;-69
2022/06/25 13:38:18;;;;;;;21.63;14.83;;;;;;;;;;5111863;28;20027;-69
2022/06/25 13:40:45;;;;;;;13.23;2.73;;;;;;;;;;5112753;28;20470;-69
2022/06/25 13:43:12;;;;;;;11.90;3.17;;;;;;;;;;5113072;28;20053;-69
2022/06/25 13:45:38;;;;;;;9.47;3.37;;;;;;;;;;5112637;28;20035;-69
2022/06/25 13:48:05;;;;;;;12.60;3.00;;;;;;;;;;5113004;28;20031;-69
2022/06/25 13:50:32;;;;;;;10.53;3.73;;;;;;;;;;5108301;28;20043;-69
2022/06/25 13:52:58;;;;;;;9.53;3.60;;;;;;;;;;5107242;28;20098;-69
2022/06/25 13:55:25;;;;;;;8.23;2.80;;;;;;;;;;5107179;28;20092;-69
2022/06/25 13:57:52;;;;;;;49.60;37.53;;;;;;;;;;5107537;28;20054;-70
2022/06/25 14:00:18;;;;;;;7.67;2.60;;;;;;;;;;5111152;28;20019;-69
2022/06/25 14:02:45;;;;;;;9.50;3.30;;;;;;;;;;5112891;28;20076;-69
2022/06/25 14:05:12;;;;;;;9.67;3.13;;;;;;;;;;5112290;28;20024;-69
2022/06/25 14:07:39;;;;;;;8.67;2.60;;;;;;;;;;5112135;28;20098;-69
2022/06/25 14:10:06;;;;;;;7.63;3.37;;;;;;;;;;5112273;28;20031;-69
2022/06/25 14:12:33;;;;;;;8.13;2.77;;;;;;;;;;5108257;28;20026;-69
2022/06/25 14:14:59;;;;;;;6.97;2.60;;;;;;;;;;5107503;28;20401;-69
2022/06/25 14:17:26;;;;;;;8.57;2.83;;;;;;;;;;5107062;28;20367;-69
2022/06/25 14:19:53;;;;;;;11.47;3.17;;;;;;;;;;5106990;28;20020;-69
2022/06/25 14:22:19;;;;;;;10.53;3.10;;;;;;;;;;5110510;28;20089;-69
2022/06/25 14:27:31;;;;;;;329.52;294.33;;;;;;;;;;5112429;28;20055;-69
2022/06/25 14:29:58;;;;;;;9.53;3.07;;;;;;;;;;5112171;28;20470;-70
2022/06/25 14:32:24;;;;;;;237.30;214.53;;;;;;;;;;5112558;28;20485;-70
2022/06/25 14:34:51;;;;;;;9.77;3.47;;;;;;;;;;5089061;28;20432;-71
2022/06/25 14:43:04;;;;;;;15.50;4.73;;;;;;;;;;5024087;28;19916;-71
2022/06/25 14:45:31;;;;;;;17.63;4.50;;;;;;;;;;5079090;28;20047;-71
2022/06/25 14:47:58;;;;;;;11.60;4.90;;;;;;;;;;5093318;28;20020;-71
2022/06/25 14:50:25;;;;;;;18.43;7.23;;;;;;;;;;5095892;28;20107;-71
2022/06/25 14:52:51;;;;;;;26.20;9.73;;;;;;;;;;5108133;28;20062;-71
2022/06/25 14:55:18;;;;;;;22.00;7.57;;;;;;;;;;5115340;28;20466;-71
2022/06/25 14:57:45;;;;;;;15.30;5.20;;;;;;;;;;5110258;28;20028;-71